Poronajsk, Russia
Current Conditions -  °F | °C
As of 6:30 PM on Wednesday 26 Nov 2014 (Local Time) from UHSS Reporting Station
Clear Clear  
Wind Chill: 25°   Ceiling: Unl
Heat Index: 30°   Visibility: 6mi
Dew Point: 23°   Wind: 4mph
Humidity: 75%   Direction: 140°SE
Pressure: 30.18"   Gusts: NA
Location:  49.22°N, 143.12°E
Report Text: UHSS 260730Z 14002MPS 9999 SKC M01/M05 Q1022 NOSIG RMKQFE765/1020 19CLRD65
Loading
Personal Weather Stations






























Interactive Weather Map New forecast layout! Learn more

10-Day Weather Forecast

Advertisements
Track Severe Weather on mobile